Time;durP1;ratioP1;P1;durP2;ratioP2;P2;SDS_P1;SDS_P2;PMS_P1;PMS_P2;Temp;Humidity;BMP_temperature;BMP_pressure;BME280_temperature;BME280_humidity;BME280_pressure;Samples;Min_cycle;Max_cycle;Signal;HPM_P1;HPM_P2
2022/03/22 00:01:30;;;;;;;36.17;13.38;;;3.80;66.50;;;;;;5020779;28;20030;-89
2022/03/22 00:03:55;;;;;;;27.85;13.02;;;3.70;66.50;;;;;;5019592;28;20042;-90
2022/03/22 00:06:21;;;;;;;35.10;13.23;;;3.70;66.80;;;;;;5008623;28;20022;-88
2022/03/22 00:08:48;;;;;;;37.28;14.20;;;3.70;66.70;;;;;;5011191;28;20026;-89
2022/03/22 00:11:14;;;;;;;30.35;13.50;;;3.70;66.50;;;;;;4993118;28;20034;-88
2022/03/22 00:13:43;;;;;;;35.70;13.68;;;3.60;66.30;;;;;;5008206;28;20038;-89
2022/03/22 00:16:09;;;;;;;32.60;15.45;;;3.60;66.30;;;;;;4991863;28;20025;-89
2022/03/22 00:18:35;;;;;;;33.20;13.95;;;3.60;67.40;;;;;;5008148;28;20038;-90
2022/03/22 00:21:01;;;;;;;35.95;14.90;;;3.50;67.90;;;;;;5006983;28;20044;-88
2022/03/22 00:23:28;;;;;;;36.08;14.65;;;3.50;68.00;;;;;;5005763;28;20034;-89
2022/03/22 00:25:54;;;;;;;30.13;14.88;;;3.40;68.50;;;;;;5006385;28;20590;-90
2022/03/22 00:28:20;;;;;;;32.60;14.95;;;3.40;68.30;;;;;;5004863;28;20030;-87
2022/03/22 00:30:46;;;;;;;36.08;15.13;;;3.40;68.60;;;;;;5009208;28;20073;-89
2022/03/22 00:33:12;;;;;;;35.97;14.00;;;3.30;68.90;;;;;;5000610;28;20034;-89
2022/03/22 00:35:39;;;;;;;37.70;14.45;;;3.30;68.90;;;;;;5017607;28;20037;-90
2022/03/22 00:38:20;;;;;;;35.20;15.23;;;3.30;69.00;;;;;;5011595;28;20038;-89
2022/03/22 00:40:47;;;;;;;28.58;13.52;;;3.30;68.60;;;;;;4990572;28;20023;-88
2022/03/22 00:43:13;;;;;;;35.15;15.00;;;3.30;68.60;;;;;;5003687;28;20038;-88
2022/03/22 00:45:42;;;;;;;35.50;14.35;;;3.20;69.50;;;;;;5004907;28;20034;-89
2022/03/22 00:48:12;;;;;;;44.20;15.40;;;3.20;69.40;;;;;;5003898;28;20033;-88
2022/03/22 00:50:43;;;;;;;34.65;15.90;;;3.20;70.90;;;;;;5006310;28;20034;-89
2022/03/22 00:53:12;;;;;;;40.63;14.45;;;3.20;72.90;;;;;;4987129;28;20483;-89
2022/03/22 00:55:40;;;;;;;35.40;15.15;;;3.20;73.60;;;;;;4984741;28;20037;-88
2022/03/22 00:58:09;;;;;;;33.50;16.17;;;3.10;72.90;;;;;;5003894;28;20476;-89
2022/03/22 01:00:35;;;;;;;33.08;15.32;;;3.10;72.20;;;;;;5002202;28;20073;-89
2022/03/22 01:03:03;;;;;;;39.85;15.55;;;3.10;71.80;;;;;;4999872;28;20061;-90
2022/03/22 01:05:30;;;;;;;38.20;17.17;;;3.00;71.70;;;;;;5002457;28;20022;-89
2022/03/22 01:08:01;;;;;;;38.45;16.92;;;3.00;71.90;;;;;;5002088;28;20090;-89
2022/03/22 01:10:29;;;;;;;40.60;16.60;;;3.00;72.40;;;;;;5000797;28;20139;-89
2022/03/22 01:12:55;;;;;;;47.50;18.55;;;2.90;73.10;;;;;;5001544;28;20026;-90
2022/03/22 01:15:33;;;;;;;33.78;16.60;;;2.90;73.20;;;;;;5006327;28;20426;-88
2022/03/22 01:18:06;;;;;;;36.97;16.80;;;2.90;73.10;;;;;;5024523;28;20880;-88
2022/03/22 01:20:38;;;;;;;38.70;16.77;;;2.80;72.80;;;;;;5024652;28;20022;-89
2022/03/22 01:23:07;;;;;;;38.05;15.75;;;2.80;72.70;;;;;;5024097;28;20038;-90
2022/03/22 01:25:34;;;;;;;40.72;18.08;;;2.80;72.60;;;;;;5023645;28;20034;-90
2022/03/22 01:28:04;;;;;;;35.28;16.13;;;2.80;72.00;;;;;;5015830;28;20041;-90
2022/03/22 01:30:30;;;;;;;38.40;16.45;;;2.80;72.00;;;;;;5013902;28;20030;-90
2022/03/22 01:32:56;;;;;;;36.00;16.42;;;2.80;72.10;;;;;;5012793;28;20026;-88
2022/03/22 01:35:25;;;;;;;37.55;16.27;;;2.80;72.40;;;;;;5012832;28;20494;-90
2022/03/22 01:37:53;;;;;;;39.53;15.82;;;2.80;72.60;;;;;;5012161;28;20053;-88
2022/03/22 01:40:22;;;;;;;38.65;16.27;;;2.70;72.70;;;;;;5011714;28;20126;-89
2022/03/22 01:42:49;;;;;;;39.33;16.67;;;2.70;73.00;;;;;;5011925;28;20041;-90
2022/03/22 01:45:15;;;;;;;37.03;15.30;;;2.80;72.50;;;;;;4998780;28;20042;-89
2022/03/22 01:47:43;;;;;;;37.88;16.30;;;2.70;72.10;;;;;;4998304;28;20034;-89
2022/03/22 01:50:12;;;;;;;39.08;16.77;;;2.70;71.90;;;;;;4994568;28;20026;-88
2022/03/22 01:52:40;;;;;;;34.80;16.92;;;2.70;72.10;;;;;;5014032;28;20107;-89
2022/03/22 01:55:07;;;;;;;42.05;17.50;;;2.70;72.40;;;;;;5019614;28;20050;-89
2022/03/22 01:57:34;;;;;;;40.33;16.90;;;2.70;73.10;;;;;;4997998;28;20034;-89
2022/03/22 02:00:03;;;;;;;38.47;16.88;;;2.70;74.40;;;;;;5017637;28;20119;-88
2022/03/22 02:08:02;;;;;;;42.40;17.67;;;2.60;77.70;;;;;;5018489;28;20048;-88
2022/03/22 02:10:28;;;;;;;41.60;16.75;;;2.60;81.20;;;;;;5011748;28;20085;-87
2022/03/22 02:12:54;;;;;;;36.28;17.55;;;2.60;82.40;;;;;;5010479;28;20097;-89
2022/03/22 02:15:20;;;;;;;34.78;16.70;;;2.60;81.90;;;;;;5008996;28;20545;-88
2022/03/22 02:17:46;;;;;;;44.65;16.67;;;2.50;81.00;;;;;;5007339;28;20058;-89
2022/03/22 02:20:13;;;;;;;37.40;16.88;;;2.50;79.60;;;;;;5009473;28;20053;-89
2022/03/22 02:23:15;;;;;;;38.50;17.27;;;2.50;78.80;;;;;;4994388;28;20121;-89
2022/03/22 02:25:41;;;;;;;36.63;16.20;;;2.50;78.60;;;;;;5018859;28;20106;-88
2022/03/22 02:28:08;;;;;;;38.22;16.88;;;2.50;77.70;;;;;;5003086;28;20091;-90
2022/03/22 02:30:34;;;;;;;42.17;17.30;;;2.40;77.30;;;;;;5013901;28;20043;-89
2022/03/22 02:33:01;;;;;;;44.28;17.95;;;2.50;76.90;;;;;;5006525;28;20035;-89
2022/03/22 02:35:29;;;;;;;42.95;17.35;;;2.50;76.30;;;;;;4992562;28;20038;-88
2022/03/22 02:37:55;;;;;;;38.78;17.23;;;2.40;76.80;;;;;;5009694;28;20059;-88
2022/03/22 02:40:21;;;;;;;39.30;17.38;;;2.40;76.50;;;;;;5006035;28;20057;-88
2022/03/22 02:42:54;;;;;;;40.53;16.35;;;2.40;76.20;;;;;;5010106;28;20030;-88
2022/03/22 02:45:23;;;;;;;34.67;16.00;;;2.50;76.10;;;;;;5019986;28;20046;-88
2022/03/22 02:47:49;;;;;;;38.95;16.40;;;2.40;76.80;;;;;;5004344;28;20034;-89
2022/03/22 02:50:16;;;;;;;37.78;17.30;;;2.50;78.20;;;;;;5017113;28;20049;-90
2022/03/22 02:52:44;;;;;;;40.30;16.80;;;2.40;79.30;;;;;;5019708;28;20041;-89
2022/03/22 02:55:11;;;;;;;35.70;16.20;;;2.40;78.80;;;;;;5015110;28;20046;-88
2022/03/22 02:57:38;;;;;;;41.13;17.13;;;2.40;77.70;;;;;;4996185;28;20053;-89
2022/03/22 03:00:07;;;;;;;38.28;16.80;;;2.40;77.30;;;;;;5014976;28;20038;-89
2022/03/22 03:02:39;;;;;;;41.58;17.02;;;2.30;77.20;;;;;;5016350;28;20367;-90
2022/03/22 03:05:05;;;;;;;37.00;17.27;;;2.30;75.90;;;;;;5016296;28;20077;-89
2022/03/22 03:07:31;;;;;;;38.55;17.33;;;2.30;75.30;;;;;;5010154;28;20558;-90
2022/03/22 03:09:57;;;;;;;49.90;17.33;;;2.30;75.80;;;;;;5010859;28;20038;-89
2022/03/22 03:12:23;;;;;;;41.90;16.83;;;2.30;77.10;;;;;;5019046;28;20034;-90
2022/03/22 03:14:48;;;;;;;45.13;17.08;;;2.20;77.20;;;;;;5019618;28;20014;-89
2022/03/22 03:17:15;;;;;;;39.30;16.90;;;2.20;76.50;;;;;;5012362;28;20045;-87
2022/03/22 03:19:42;;;;;;;35.40;16.27;;;2.20;76.10;;;;;;5017119;28;20062;-88
2022/03/22 03:22:08;;;;;;;35.13;15.40;;;2.20;75.80;;;;;;5019189;28;20065;-89
2022/03/22 03:24:35;;;;;;;37.05;16.27;;;2.20;75.50;;;;;;5001114;28;20101;-90
2022/03/22 03:27:01;;;;;;;39.42;16.10;;;2.20;75.30;;;;;;5013022;28;20054;-87
2022/03/22 03:29:27;;;;;;;37.38;15.98;;;2.20;75.20;;;;;;5015693;28;20073;-88
2022/03/22 03:31:54;;;;;;;35.67;16.42;;;2.20;75.30;;;;;;5018943;28;20019;-87
2022/03/22 03:34:20;;;;;;;37.28;16.00;;;2.20;76.00;;;;;;5019237;28;20022;-88
2022/03/22 03:36:47;;;;;;;40.70;16.42;;;2.30;76.00;;;;;;5018850;28;20014;-89
2022/03/22 03:39:13;;;;;;;37.47;15.77;;;2.20;76.00;;;;;;5016554;28;20128;-88
2022/03/22 03:41:59;;;;;;;38.15;15.95;;;2.20;76.30;;;;;;5005948;28;20050;-89
2022/03/22 03:47:15;;;;;;;39.95;17.90;;;2.20;77.20;;;;;;5010718;28;20030;-88
2022/03/22 03:49:49;;;;;;;42.92;17.08;;;2.20;77.80;;;;;;5014683;28;20089;-90
2022/03/22 03:52:18;;;;;;;42.23;16.90;;;2.20;78.60;;;;;;5007602;28;20662;-88
2022/03/22 03:54:44;;;;;;;41.05;17.73;;;2.20;79.00;;;;;;5006109;28;20353;-89
2022/03/22 03:57:11;;;;;;;40.53;18.05;;;2.20;79.20;;;;;;5004476;28;20100;-89
2022/03/22 03:59:39;;;;;;;44.63;17.33;;;2.20;78.90;;;;;;5008944;28;20018;-89
2022/03/22 04:02:08;;;;;;;43.70;18.33;;;2.20;78.90;;;;;;4992817;28;20034;-89
2022/03/22 04:04:39;;;;;;;42.72;16.98;;;2.20;79.20;;;;;;5006508;28;20027;-88
2022/03/22 04:07:08;;;;;;;39.00;17.30;;;2.20;79.30;;;;;;5009045;28;20040;-89
2022/03/22 04:09:35;;;;;;;44.72;17.92;;;2.20;79.50;;;;;;4993689;28;20057;-88
2022/03/22 04:12:03;;;;;;;39.95;16.48;;;2.20;79.60;;;;;;5011684;28;20053;-88
2022/03/22 04:14:29;;;;;;;36.97;17.60;;;2.20;79.70;;;;;;5011816;28;20094;-87
2022/03/22 04:16:57;;;;;;;39.65;17.30;;;2.20;80.00;;;;;;5017467;28;20034;-88
2022/03/22 04:19:28;;;;;;;42.63;18.60;;;2.10;80.20;;;;;;5011678;28;20015;-89
2022/03/22 04:21:54;;;;;;;40.78;17.30;;;2.10;80.90;;;;;;5018077;28;20034;-89
2022/03/22 04:24:20;;;;;;;43.72;18.00;;;2.10;81.50;;;;;;5013740;28;20386;-88
2022/03/22 04:26:47;;;;;;;41.13;18.55;;;2.10;81.80;;;;;;4990205;28;20046;-89
2022/03/22 04:34:44;;;;;;;37.20;18.20;;;2.00;82.40;;;;;;5005949;28;20109;-89
2022/03/22 04:37:13;;;;;;;45.85;17.33;;;2.00;83.70;;;;;;5007941;28;20504;-88
2022/03/22 04:39:45;;;;;;;42.55;17.90;;;2.00;84.90;;;;;;5018482;28;20018;-88
2022/03/22 04:42:14;;;;;;;40.35;17.23;;;2.00;85.90;;;;;;5001799;28;20057;-89
2022/03/22 04:44:40;;;;;;;39.33;18.25;;;2.00;87.30;;;;;;5001799;28;20019;-88
2022/03/22 04:47:06;;;;;;;49.22;19.00;;;2.00;88.00;;;;;;5016907;28;20026;-89
2022/03/22 04:49:33;;;;;;;50.03;18.08;;;2.00;88.70;;;;;;4999900;28;20026;-89
2022/03/22 04:57:32;;;;;;;42.72;17.38;;;2.00;88.40;;;;;;5001212;28;20045;-89
2022/03/22 04:59:58;;;;;;;40.33;18.10;;;2.00;88.70;;;;;;5000489;28;20027;-88
2022/03/22 05:02:24;;;;;;;35.97;17.63;;;2.10;88.40;;;;;;5015315;28;20041;-90
2022/03/22 05:04:49;;;;;;;43.70;17.15;;;2.10;87.90;;;;;;5004322;28;20022;-89
2022/03/22 05:07:15;;;;;;;45.75;18.17;;;2.10;87.60;;;;;;5017003;28;20031;-89
2022/03/22 05:09:41;;;;;;;50.28;18.42;;;2.10;87.00;;;;;;5017008;28;20176;-89
2022/03/22 05:12:13;;;;;;;46.50;18.13;;;2.10;86.30;;;;;;5007821;28;20034;-88
2022/03/22 05:14:42;;;;;;;38.90;17.77;;;2.20;85.60;;;;;;4990757;28;20030;-88
2022/03/22 05:17:11;;;;;;;45.35;18.80;;;2.20;85.90;;;;;;5001223;28;20038;-90
2022/03/22 05:19:40;;;;;;;48.22;18.85;;;2.20;84.50;;;;;;5016769;28;20033;-87
2022/03/22 05:22:07;;;;;;;42.78;18.67;;;2.20;83.70;;;;;;5013660;28;20053;-90
2022/03/22 05:24:33;;;;;;;45.92;17.98;;;2.20;83.10;;;;;;5015129;28;20030;-89
2022/03/22 05:26:59;;;;;;;37.42;16.58;;;2.20;83.50;;;;;;5018199;28;20029;-89
2022/03/22 05:29:25;;;;;;;39.10;16.77;;;2.20;83.70;;;;;;5021561;28;20026;-89
2022/03/22 05:31:50;;;;;;;50.90;17.88;;;2.20;82.60;;;;;;4987279;28;20081;-91
2022/03/22 05:34:16;;;;;;;43.15;17.60;;;2.30;81.90;;;;;;5020213;28;20022;-91
2022/03/22 05:36:42;;;;;;;38.33;17.52;;;2.30;81.80;;;;;;5017539;28;20034;-91
2022/03/22 05:39:10;;;;;;;41.30;16.55;;;2.30;81.60;;;;;;5001860;28;20021;-91
2022/03/22 05:41:36;;;;;;;43.22;17.95;;;2.40;81.60;;;;;;5022392;28;20029;-93
2022/03/22 05:44:02;;;;;;;47.20;17.20;;;2.40;81.50;;;;;;5010013;28;20076;-91
2022/03/22 05:46:28;;;;;;;42.97;17.48;;;2.50;81.70;;;;;;5023855;28;20018;-92
2022/03/22 05:48:55;;;;;;;38.28;17.38;;;2.60;82.20;;;;;;5028978;28;20033;-92
2022/03/22 05:51:22;;;;;;;33.55;16.05;;;2.60;82.90;;;;;;5008486;28;20037;-93
2022/03/22 05:53:48;;;;;;;36.33;17.13;;;2.70;82.10;;;;;;5017088;28;20074;-91
2022/03/22 05:56:14;;;;;;;38.50;16.63;;;2.80;81.10;;;;;;5006099;28;20083;-91
2022/03/22 05:58:40;;;;;;;41.80;17.38;;;2.80;80.00;;;;;;5004087;28;20027;-91
2022/03/22 06:01:06;;;;;;;38.53;17.15;;;2.90;79.10;;;;;;5021171;28;20030;-90
2022/03/22 06:03:33;;;;;;;46.80;17.98;;;3.00;78.70;;;;;;5010499;28;20026;-91
2022/03/22 06:06:00;;;;;;;41.63;17.25;;;3.10;77.90;;;;;;5020561;28;20077;-92
2022/03/22 06:08:27;;;;;;;36.63;15.95;;;3.10;78.00;;;;;;5022467;28;20046;-91
2022/03/22 06:10:53;;;;;;;45.67;17.67;;;3.10;77.60;;;;;;5003607;28;20066;-90
2022/03/22 06:13:19;;;;;;;46.13;17.80;;;3.20;77.30;;;;;;5026371;28;20018;-91
2022/03/22 06:15:44;;;;;;;38.45;17.38;;;3.30;76.80;;;;;;5034648;23;20105;-83
2022/03/22 06:18:11;;;;;;;37.72;18.10;;;3.40;76.50;;;;;;5016663;28;20030;-82
2022/03/22 06:20:41;;;;;;;34.50;17.48;;;3.50;76.00;;;;;;5015374;28;20049;-83
2022/03/22 06:23:13;;;;;;;42.10;17.70;;;3.50;75.60;;;;;;5010801;28;20047;-83
2022/03/22 06:25:40;;;;;;;42.33;19.30;;;3.60;75.60;;;;;;5010664;28;20026;-84
2022/03/22 06:28:06;;;;;;;38.60;16.92;;;3.60;75.40;;;;;;4986104;28;20519;-84
2022/03/22 06:30:34;;;;;;;43.92;17.58;;;3.70;75.70;;;;;;4986031;28;20098;-84
2022/03/22 06:33:06;;;;;;;39.95;17.58;;;3.80;75.00;;;;;;4984253;28;20011;-85
2022/03/22 06:35:33;;;;;;;48.30;18.33;;;3.90;74.80;;;;;;4985580;28;20098;-85
2022/03/22 06:38:00;;;;;;;39.13;18.27;;;4.00;74.60;;;;;;4985695;28;20057;-87
2022/03/22 06:40:29;;;;;;;39.42;17.77;;;4.10;74.50;;;;;;5009567;28;20090;-86
2022/03/22 06:42:56;;;;;;;37.53;16.65;;;4.20;74.40;;;;;;4983790;28;20044;-86
2022/03/22 06:45:23;;;;;;;35.95;17.40;;;4.30;74.10;;;;;;4971291;28;20030;-83
2022/03/22 06:47:49;;;;;;;42.28;17.95;;;4.40;73.70;;;;;;4996531;28;20066;-86
2022/03/22 06:50:16;;;;;;;39.63;17.20;;;4.60;73.70;;;;;;4991571;28;20050;-85
2022/03/22 06:52:42;;;;;;;47.60;18.00;;;4.70;73.40;;;;;;4986776;28;20055;-83
2022/03/22 06:55:10;;;;;;;36.92;18.70;;;4.80;73.10;;;;;;4986421;28;20026;-83
2022/03/22 06:57:37;;;;;;;43.40;18.75;;;4.90;73.30;;;;;;4985454;28;20023;-83
2022/03/22 07:00:08;;;;;;;40.97;18.38;;;5.00;73.10;;;;;;4985325;28;20419;-83
2022/03/22 07:02:35;;;;;;;42.75;19.35;;;5.10;72.80;;;;;;4984757;28;20035;-87
2022/03/22 07:05:02;;;;;;;44.22;18.42;;;5.20;72.40;;;;;;4987740;28;20013;-84
2022/03/22 07:07:28;;;;;;;39.47;18.40;;;5.30;72.30;;;;;;4993033;28;20054;-84
2022/03/22 07:09:54;;;;;;;39.58;18.55;;;5.30;72.10;;;;;;4999969;28;20043;-82
2022/03/22 07:12:19;;;;;;;47.83;18.25;;;5.40;72.10;;;;;;4998516;28;20027;-84
2022/03/22 07:14:45;;;;;;;37.78;18.65;;;5.50;71.80;;;;;;4999289;28;20038;-82
2022/03/22 07:17:11;;;;;;;44.25;19.38;;;5.50;71.40;;;;;;4998148;28;20018;-83
2022/03/22 07:19:38;;;;;;;38.13;18.50;;;5.60;71.20;;;;;;4991635;28;20099;-84
2022/03/22 07:22:05;;;;;;;38.75;19.13;;;5.70;70.90;;;;;;4991887;28;20126;-85
2022/03/22 07:24:32;;;;;;;40.50;19.23;;;5.70;70.40;;;;;;4992458;28;20030;-83
2022/03/22 07:26:57;;;;;;;48.17;19.17;;;5.80;69.40;;;;;;4996033;28;20026;-84
2022/03/22 07:29:23;;;;;;;41.30;18.05;;;6.00;69.30;;;;;;4998170;28;20023;-82
2022/03/22 07:31:49;;;;;;;43.13;20.05;;;6.10;68.90;;;;;;4999042;28;20058;-81
2022/03/22 07:34:16;;;;;;;46.05;20.58;;;6.10;68.60;;;;;;4994728;28;20023;-83
2022/03/22 07:36:43;;;;;;;42.53;20.80;;;6.20;68.60;;;;;;5003050;28;20010;-83
2022/03/22 07:39:11;;;;;;;48.33;19.50;;;6.20;68.20;;;;;;5005002;28;20095;-83
2022/03/22 07:41:38;;;;;;;42.60;18.95;;;6.30;68.50;;;;;;5008916;28;20053;-84
2022/03/22 07:44:05;;;;;;;47.13;19.60;;;6.40;68.30;;;;;;5001250;28;20029;-83
2022/03/22 07:46:30;;;;;;;42.17;20.05;;;6.50;67.90;;;;;;5017441;28;20046;-86
2022/03/22 07:52:58;;;;;;;47.35;19.92;;;6.50;68.10;;;;;;5010309;28;20038;-84
2022/03/22 07:54:30;;;;;;;;;;;6.60;68.10;;;;;;4990342;28;20061;-83
2022/03/22 07:56:56;;;;;;;36.00;17.58;;;6.70;67.10;;;;;;4990257;28;19974;-85
2022/03/22 07:59:26;;;;;;;38.47;19.20;;;6.80;66.40;;;;;;4991184;28;20026;-85
2022/03/22 08:01:53;;;;;;;39.63;18.50;;;6.80;66.50;;;;;;4984802;28;20098;-86
2022/03/22 08:04:19;;;;;;;39.65;19.88;;;6.80;66.90;;;;;;4985412;28;20027;-86
2022/03/22 08:06:44;;;;;;;42.45;19.40;;;6.90;67.00;;;;;;4987632;28;20162;-85
2022/03/22 08:09:10;;;;;;;40.97;18.88;;;7.10;67.10;;;;;;4986992;28;20057;-85
2022/03/22 08:11:36;;;;;;;45.95;21.40;;;7.30;67.10;;;;;;4985087;28;20117;-85
2022/03/22 08:14:04;;;;;;;48.10;20.23;;;7.40;67.00;;;;;;4982658;28;20061;-84
2022/03/22 08:16:30;;;;;;;56.80;20.60;;;7.50;66.70;;;;;;4998155;28;20043;-86
2022/03/22 08:18:56;;;;;;;41.75;20.50;;;7.60;67.00;;;;;;4982316;28;20101;-86
2022/03/22 08:21:22;;;;;;;56.95;21.20;;;7.70;66.80;;;;;;4964424;28;20511;-84
2022/03/22 08:23:47;;;;;;;44.13;20.77;;;7.70;67.60;;;;;;4982013;28;20027;-87
2022/03/22 08:26:14;;;;;;;52.65;21.05;;;7.70;67.10;;;;;;4981799;28;20030;-85
2022/03/22 08:28:40;;;;;;;41.75;19.98;;;7.80;67.10;;;;;;4983585;28;20015;-86
2022/03/22 08:31:06;;;;;;;46.20;20.70;;;7.90;66.80;;;;;;4987661;28;20047;-84
2022/03/22 08:33:32;;;;;;;43.65;20.90;;;8.00;66.90;;;;;;4983959;28;20035;-84
2022/03/22 08:35:58;;;;;;;44.42;22.33;;;8.10;67.10;;;;;;4989064;28;20038;-84
2022/03/22 08:38:24;;;;;;;46.22;21.30;;;8.20;67.10;;;;;;4988196;28;20026;-85
2022/03/22 08:40:51;;;;;;;42.63;20.55;;;8.30;67.50;;;;;;4983987;28;20455;-84
2022/03/22 08:43:21;;;;;;;38.33;19.45;;;8.40;65.60;;;;;;4985110;28;20026;-85
2022/03/22 08:45:47;;;;;;;40.80;19.63;;;8.50;66.20;;;;;;4986802;28;20023;-84
2022/03/22 08:48:13;;;;;;;56.88;24.60;;;8.70;66.40;;;;;;4981178;28;20500;-85
2022/03/22 08:50:42;;;;;;;42.15;20.13;;;8.80;65.40;;;;;;4981647;28;20084;-86
2022/03/22 08:53:10;;;;;;;42.10;20.13;;;8.90;65.70;;;;;;4985430;28;20030;-84
2022/03/22 08:55:36;;;;;;;37.35;19.67;;;9.00;65.40;;;;;;4996991;28;20041;-81
2022/03/22 08:58:06;;;;;;;37.05;19.05;;;9.20;64.70;;;;;;4997049;28;20034;-82
2022/03/22 09:00:36;;;;;;;37.65;20.10;;;9.30;64.70;;;;;;4997506;28;20082;-84
2022/03/22 09:03:05;;;;;;;36.58;20.48;;;9.50;64.70;;;;;;4997280;28;20030;-83
2022/03/22 09:08:15;;;;;;;42.20;19.35;;;9.90;63.00;;;;;;4995568;28;20058;-83
2022/03/22 09:10:41;;;;;;;43.83;19.50;;;10.30;61.70;;;;;;4996452;28;20019;-83
2022/03/22 09:13:08;;;;;;;36.78;18.60;;;10.80;61.50;;;;;;4996675;28;20023;-85
2022/03/22 09:15:37;;;;;;;33.65;18.23;;;11.40;60.60;;;;;;4997505;28;20043;-82
2022/03/22 09:18:06;;;;;;;33.92;19.23;;;12.40;58.50;;;;;;4997424;28;20110;-85
2022/03/22 09:20:32;;;;;;;44.92;18.27;;;13.60;57.00;;;;;;4995847;28;20015;-83
2022/03/22 09:23:02;;;;;;;34.28;17.98;;;15.30;54.10;;;;;;4996056;28;20054;-84
2022/03/22 09:25:28;;;;;;;30.10;18.27;;;16.50;52.40;;;;;;4996433;28;20019;-82
2022/03/22 09:27:55;;;;;;;28.00;16.77;;;17.30;50.30;;;;;;4996961;28;20047;-83
2022/03/22 09:30:22;;;;;;;31.83;17.90;;;17.70;48.70;;;;;;4996200;28;20023;-82
2022/03/22 09:32:48;;;;;;;31.10;17.23;;;18.60;48.00;;;;;;4995759;28;20035;-82
2022/03/22 09:35:19;;;;;;;33.83;17.00;;;19.50;46.70;;;;;;4993809;28;20078;-84
2022/03/22 09:37:46;;;;;;;27.83;16.52;;;20.10;45.20;;;;;;4996057;28;20030;-83
2022/03/22 09:40:15;;;;;;;30.60;16.20;;;20.50;43.70;;;;;;4992541;28;20070;-85
2022/03/22 09:42:42;;;;;;;29.02;15.80;;;20.80;43.40;;;;;;4998451;28;20038;-83
2022/03/22 09:45:10;;;;;;;25.70;16.10;;;21.80;42.00;;;;;;4999924;28;20075;-84
2022/03/22 09:47:41;;;;;;;28.23;16.15;;;22.00;40.90;;;;;;5000137;28;20034;-84
2022/03/22 09:50:09;;;;;;;28.13;15.75;;;22.20;40.40;;;;;;4999716;28;20027;-85
2022/03/22 09:52:36;;;;;;;31.20;14.88;;;23.30;39.70;;;;;;4995763;28;20079;-84
2022/03/22 09:55:03;;;;;;;41.63;15.30;;;22.70;39.20;;;;;;4996400;28;20176;-83
2022/03/22 09:57:29;;;;;;;26.77;14.93;;;22.50;39.10;;;;;;4999203;28;20011;-84
2022/03/22 09:59:55;;;;;;;22.40;14.60;;;22.80;38.90;;;;;;5000355;28;20035;-83
2022/03/22 10:02:29;;;;;;;23.75;12.88;;;24.50;38.00;;;;;;4999816;28;20055;-85
2022/03/22 10:04:55;;;;;;;22.17;13.00;;;25.90;36.60;;;;;;5001074;28;20046;-83
2022/03/22 10:07:22;;;;;;;18.92;12.07;;;26.80;36.40;;;;;;5001339;28;20270;-83
2022/03/22 10:09:53;;;;;;;22.08;12.40;;;27.40;35.00;;;;;;5001126;28;20034;-84
2022/03/22 10:12:37;;;;;;;22.13;10.88;;;27.00;34.40;;;;;;5001003;28;20037;-84
2022/03/22 10:15:12;;;;;;;23.05;11.23;;;26.00;34.10;;;;;;4996723;28;20141;-83
2022/03/22 10:17:38;;;;;;;;;;;25.20;34.30;;;;;;4999190;28;20077;-84
2022/03/22 10:20:06;;;;;;;24.88;12.38;;;25.40;34.60;;;;;;5000189;28;19900;-85
2022/03/22 10:22:33;;;;;;;21.02;12.13;;;25.50;34.30;;;;;;4999532;28;20045;-84
2022/03/22 10:25:04;;;;;;;19.73;12.43;;;24.90;34.50;;;;;;4997046;28;20087;-82
2022/03/22 10:27:37;;;;;;;27.25;12.65;;;24.60;34.90;;;;;;4998231;28;20031;-83
2022/03/22 10:30:06;;;;;;;20.83;12.43;;;25.20;34.60;;;;;;4997180;28;20031;-85
2022/03/22 10:32:37;;;;;;;18.17;11.57;;;25.80;33.90;;;;;;4993807;28;20023;-85
2022/03/22 10:35:35;;;;;;;19.45;11.48;;;26.00;33.80;;;;;;4993890;28;20026;-84
2022/03/22 10:38:05;;;;;;;23.60;12.15;;;25.40;33.90;;;;;;4994663;28;20159;-83
2022/03/22 10:40:33;;;;;;;28.50;12.98;;;24.70;34.20;;;;;;4994752;28;20046;-84
2022/03/22 10:43:03;;;;;;;19.95;12.18;;;24.50;34.70;;;;;;4993241;28;20035;-85
2022/03/22 10:45:42;;;;;;;18.20;11.18;;;24.70;34.20;;;;;;4993662;28;20034;-86
2022/03/22 10:48:08;;;;;;;17.67;11.10;;;24.90;34.20;;;;;;4988066;28;20035;-85
2022/03/22 10:50:37;;;;;;;21.90;11.05;;;25.40;33.80;;;;;;4992900;28;20034;-84
2022/03/22 10:53:04;;;;;;;20.42;10.50;;;25.80;33.80;;;;;;4992839;28;20027;-84
2022/03/22 10:55:30;;;;;;;14.68;10.25;;;26.10;33.10;;;;;;4990731;28;20046;-86
2022/03/22 10:58:04;;;;;;;18.88;9.45;;;25.90;33.00;;;;;;4991444;28;20041;-84
2022/03/22 11:00:30;;;;;;;19.58;10.40;;;25.00;32.80;;;;;;4990614;28;20430;-85
2022/03/22 11:02:57;;;;;;;17.40;9.48;;;25.60;33.00;;;;;;4989794;28;20058;-85
2022/03/22 11:05:25;;;;;;;19.45;10.70;;;25.40;32.70;;;;;;4987968;28;20042;-84
2022/03/22 11:07:52;;;;;;;19.58;10.23;;;25.00;33.10;;;;;;4988089;28;20022;-85
2022/03/22 11:10:24;;;;;;;15.52;8.82;;;25.60;33.40;;;;;;4989425;28;20735;-84
2022/03/22 11:12:51;;;;;;;13.32;9.07;;;26.10;33.10;;;;;;4986490;28;20090;-83
2022/03/22 11:15:17;;;;;;;12.02;9.07;;;26.60;32.60;;;;;;4987833;28;20038;-86
2022/03/22 11:17:46;;;;;;;15.75;9.25;;;26.90;32.20;;;;;;4986940;28;20041;-86
2022/03/22 11:20:13;;;;;;;16.30;9.32;;;27.60;32.50;;;;;;4985865;28;20023;-84
2022/03/22 11:22:50;;;;;;;15.95;11.65;;;27.80;32.90;;;;;;4989198;28;20042;-83
2022/03/22 11:25:31;;;;;;;13.45;9.38;;;28.40;32.50;;;;;;4993829;28;20053;-85
2022/03/22 11:28:06;;;;;;;15.82;9.80;;;27.70;32.30;;;;;;4970536;28;20039;-85
2022/03/22 11:30:32;;;;;;;16.40;9.15;;;27.60;32.30;;;;;;4983794;28;20041;-86
2022/03/22 11:35:48;;;;;;;12.98;8.98;;;27.20;32.10;;;;;;5007494;28;20083;-86
2022/03/22 11:38:40;;;;;;;18.73;8.45;;;27.10;32.70;;;;;;4986832;28;20042;-84
2022/03/22 11:44:27;;;;;;;12.65;8.65;;;27.80;31.70;;;;;;4994243;28;20066;-86
2022/03/22 11:47:14;;;;;;;22.23;9.70;;;28.10;31.70;;;;;;4991277;28;20015;-83
2022/03/22 11:50:06;;;;;;;15.75;9.25;;;28.40;31.30;;;;;;4987270;28;20035;-86
2022/03/22 11:52:41;;;;;;;17.52;9.05;;;28.00;31.00;;;;;;4989487;28;20039;-85
2022/03/22 11:55:10;;;;;;;14.48;8.50;;;27.80;30.80;;;;;;4990888;28;20062;-85
2022/03/22 11:57:51;;;;;;;12.35;8.18;;;28.20;30.90;;;;;;4992457;28;20026;-84
2022/03/22 12:00:17;;;;;;;12.02;8.27;;;28.20;31.00;;;;;;4976035;28;20050;-84
2022/03/22 12:02:52;;;;;;;17.02;8.77;;;28.20;30.90;;;;;;4991141;28;20049;-85
2022/03/22 12:05:18;;;;;;;;;;;27.80;31.10;;;;;;4973025;28;20066;-85
2022/03/22 12:07:45;;;;;;;12.45;8.02;;;28.00;31.40;;;;;;4990637;28;19986;-85
2022/03/22 12:10:13;;;;;;;14.55;8.30;;;28.30;31.10;;;;;;4989206;28;20035;-86
2022/03/22 12:12:49;;;;;;;15.77;9.15;;;28.90;30.60;;;;;;4977339;28;20015;-86
2022/03/22 12:15:20;;;;;;;16.30;8.73;;;28.90;30.70;;;;;;4941816;28;1106286;-84
2022/03/22 12:17:46;;;;;;;16.25;9.05;;;28.60;30.70;;;;;;5057622;23;20048;-89
2022/03/22 12:20:17;;;;;;;14.45;7.75;;;28.90;31.00;;;;;;5051165;28;20037;-88
2022/03/22 12:22:56;;;;;;;17.88;8.75;;;28.40;30.10;;;;;;5053688;28;20048;-87
2022/03/22 12:25:24;;;;;;;14.63;8.63;;;28.40;30.40;;;;;;5056539;28;20021;-88
2022/03/22 12:28:09;;;;;;;13.23;7.78;;;28.10;30.40;;;;;;5040314;28;20085;-85
2022/03/22 12:30:42;;;;;;;16.23;8.18;;;28.50;30.70;;;;;;5057546;28;20041;-89
2022/03/22 12:33:14;;;;;;;16.03;8.00;;;29.00;30.30;;;;;;5042035;28;20060;-90
2022/03/22 12:35:43;;;;;;;17.88;8.70;;;29.00;30.00;;;;;;5054516;28;20055;-88
2022/03/22 12:38:10;;;;;;;15.75;7.93;;;29.00;30.00;;;;;;5055395;28;20029;-89
2022/03/22 12:40:37;;;;;;;11.75;7.78;;;28.90;30.00;;;;;;5057218;28;20037;-86
2022/03/22 12:43:06;;;;;;;14.85;9.30;;;29.20;30.00;;;;;;5051275;28;20063;-91
2022/03/22 12:45:32;;;;;;;11.32;7.78;;;29.00;30.00;;;;;;5046543;28;20049;-91
2022/03/22 12:47:59;;;;;;;12.63;8.30;;;29.20;30.20;;;;;;5049759;28;20022;-87
2022/03/22 12:50:27;;;;;;;11.13;8.05;;;29.40;30.10;;;;;;5050570;28;20049;-88
2022/03/22 12:52:54;;;;;;;16.17;7.85;;;29.60;29.90;;;;;;5053602;28;20069;-89
2022/03/22 12:55:22;;;;;;;9.75;7.70;;;29.80;30.00;;;;;;5055556;28;20022;-89
2022/03/22 12:57:51;;;;;;;10.75;7.68;;;29.70;30.00;;;;;;5057040;28;20021;-90
2022/03/22 13:00:31;;;;;;;12.50;8.07;;;29.60;30.10;;;;;;5058170;28;20026;-88
2022/03/22 13:03:16;;;;;;;11.98;8.10;;;30.30;30.00;;;;;;5056951;28;20060;-90
2022/03/22 13:05:45;;;;;;;14.15;8.73;;;29.80;29.90;;;;;;5058040;28;20030;-89
2022/03/22 13:08:17;;;;;;;13.65;7.88;;;29.80;29.70;;;;;;5041003;28;20040;-90
2022/03/22 13:15:01;;;;;;;15.52;8.65;;;29.70;29.60;;;;;;5056626;28;20033;-89
2022/03/22 13:16:39;;;;;;;13.68;8.73;;;29.10;29.80;;;;;;5057296;28;20059;-89